Time;durP1;ratioP1;P1;durP2;ratioP2;P2;SDS_P1;SDS_P2;PMS_P1;PMS_P2;Temp;Humidity;BMP_temperature;BMP_pressure;BME280_temperature;BME280_humidity;BME280_pressure;Samples;Min_cycle;Max_cycle;Signal;HPM_P1;HPM_P2
2023/09/26 00:00:54;;;;;;;10.37;7.53;;;;;;;;;;5079798;28;20048;-60
2023/09/26 00:03:20;;;;;;;11.20;7.10;;;;;;;;;;5070446;28;20049;-62
2023/09/26 00:05:48;;;;;;;8.93;6.97;;;;;;;;;;5070060;28;20316;-60
2023/09/26 00:08:14;;;;;;;12.03;7.73;;;;;;;;;;5070260;28;20560;-60
2023/09/26 00:10:40;;;;;;;9.57;7.47;;;;;;;;;;5057162;28;20090;-60
2023/09/26 00:13:06;;;;;;;12.47;8.17;;;;;;;;;;5049061;28;20053;-60
2023/09/26 00:15:32;;;;;;;7.83;6.97;;;;;;;;;;5050250;28;20045;-60
2023/09/26 00:17:58;;;;;;;11.50;7.53;;;;;;;;;;5050119;28;20044;-60
2023/09/26 00:20:26;;;;;;;10.60;8.50;;;;;;;;;;5066555;28;20051;-60
2023/09/26 00:22:52;;;;;;;9.20;6.97;;;;;;;;;;5051147;28;20084;-60
2023/09/26 00:25:18;;;;;;;12.70;8.30;;;;;;;;;;5056404;28;20040;-60
2023/09/26 00:27:44;;;;;;;12.43;8.37;;;;;;;;;;5051308;28;20041;-60
2023/09/26 00:30:10;;;;;;;9.00;8.10;;;;;;;;;;5049474;28;20136;-60
2023/09/26 00:32:38;;;;;;;14.53;9.00;;;;;;;;;;5050031;28;20408;-60
2023/09/26 00:35:05;;;;;;;12.67;8.10;;;;;;;;;;5061023;28;20098;-60
2023/09/26 00:37:31;;;;;;;9.37;8.37;;;;;;;;;;5056711;28;20056;-60
2023/09/26 00:39:57;;;;;;;13.97;8.47;;;;;;;;;;5069043;28;20052;-60
2023/09/26 00:42:24;;;;;;;10.13;8.37;;;;;;;;;;5069830;28;20074;-60
2023/09/26 00:44:50;;;;;;;11.10;8.00;;;;;;;;;;5059730;28;20087;-61
2023/09/26 00:47:17;;;;;;;11.63;8.87;;;;;;;;;;5049517;28;20040;-60
2023/09/26 00:49:43;;;;;;;11.87;8.27;;;;;;;;;;5048697;28;20574;-60
2023/09/26 00:52:09;;;;;;;13.60;9.50;;;;;;;;;;5049166;28;20037;-60
2023/09/26 00:54:36;;;;;;;12.13;8.50;;;;;;;;;;5055551;28;20032;-60
2023/09/26 00:57:02;;;;;;;11.90;9.47;;;;;;;;;;5069581;28;20040;-60
2023/09/26 00:59:29;;;;;;;9.27;8.03;;;;;;;;;;5060858;28;20088;-60
2023/09/26 01:01:55;;;;;;;13.50;8.23;;;;;;;;;;5049155;28;20393;-60
2023/09/26 01:04:22;;;;;;;10.53;8.30;;;;;;;;;;5049368;28;20041;-60
2023/09/26 01:06:48;;;;;;;10.27;8.53;;;;;;;;;;5063329;28;20045;-60
2023/09/26 01:09:14;;;;;;;11.10;8.40;;;;;;;;;;5049887;28;20128;-60
2023/09/26 01:11:40;;;;;;;10.27;9.03;;;;;;;;;;5049173;28;20103;-60
2023/09/26 01:14:06;;;;;;;11.73;9.13;;;;;;;;;;5050561;28;20617;-60
2023/09/26 01:16:32;;;;;;;16.30;10.27;;;;;;;;;;5068624;28;20048;-60
2023/09/26 01:18:58;;;;;;;11.60;9.50;;;;;;;;;;5067123;28;20063;-60
2023/09/26 01:21:25;;;;;;;10.80;9.67;;;;;;;;;;5068471;28;20629;-60
2023/09/26 01:23:53;;;;;;;14.33;10.77;;;;;;;;;;5067268;28;20128;-60
2023/09/26 01:26:19;;;;;;;12.70;9.87;;;;;;;;;;5065113;28;20063;-60
2023/09/26 01:28:45;;;;;;;17.23;11.67;;;;;;;;;;5048439;28;20044;-60
2023/09/26 01:31:11;;;;;;;13.43;10.53;;;;;;;;;;5048486;28;20466;-60
2023/09/26 01:33:37;;;;;;;14.00;11.30;;;;;;;;;;5047050;28;20041;-60
2023/09/26 01:36:03;;;;;;;11.87;10.67;;;;;;;;;;5048649;28;20855;-60
2023/09/26 01:38:29;;;;;;;16.03;12.67;;;;;;;;;;5048204;28;20139;-60
2023/09/26 01:40:55;;;;;;;12.63;11.03;;;;;;;;;;5047974;28;20588;-62
2023/09/26 01:43:21;;;;;;;13.37;10.80;;;;;;;;;;5057134;28;20036;-61
2023/09/26 01:45:47;;;;;;;15.77;12.37;;;;;;;;;;5066959;28;20040;-60
2023/09/26 01:48:13;;;;;;;16.47;13.10;;;;;;;;;;5056481;28;20531;-60
2023/09/26 01:50:40;;;;;;;17.40;14.00;;;;;;;;;;5048033;28;20090;-60
2023/09/26 01:53:06;;;;;;;16.57;13.10;;;;;;;;;;5048457;28;20500;-60
2023/09/26 01:55:32;;;;;;;16.67;13.33;;;;;;;;;;5047840;28;20049;-60
2023/09/26 01:57:58;;;;;;;13.80;12.30;;;;;;;;;;5064586;28;20395;-60
2023/09/26 02:00:24;;;;;;;14.90;12.97;;;;;;;;;;5068255;28;20041;-60
2023/09/26 02:02:50;;;;;;;14.60;11.70;;;;;;;;;;5068659;28;20072;-60
2023/09/26 02:05:17;;;;;;;15.97;14.27;;;;;;;;;;5068206;28;20687;-61
2023/09/26 02:07:46;;;;;;;17.23;15.03;;;;;;;;;;5052655;28;20687;-60
2023/09/26 02:10:13;;;;;;;18.57;13.97;;;;;;;;;;5048312;28;20056;-60
2023/09/26 02:12:44;;;;;;;16.63;14.10;;;;;;;;;;5048110;28;20045;-60
2023/09/26 02:15:11;;;;;;;16.10;13.83;;;;;;;;;;5048061;28;20048;-61
2023/09/26 02:17:38;;;;;;;18.57;15.50;;;;;;;;;;5060530;28;20049;-60
2023/09/26 02:20:12;;;;;;;18.67;14.50;;;;;;;;;;5067779;28;20723;-60
2023/09/26 02:22:38;;;;;;;17.97;15.50;;;;;;;;;;5068431;28;20351;-60
2023/09/26 02:25:05;;;;;;;22.07;15.83;;;;;;;;;;5054887;28;20064;-60
2023/09/26 02:27:31;;;;;;;22.87;15.87;;;;;;;;;;5057553;28;20048;-60
2023/09/26 02:29:58;;;;;;;20.30;18.30;;;;;;;;;;5067396;28;20041;-60
2023/09/26 02:32:24;;;;;;;21.90;19.33;;;;;;;;;;5067931;28;20045;-60
2023/09/26 02:34:50;;;;;;;23.80;18.20;;;;;;;;;;5068313;28;20394;-60
2023/09/26 02:37:16;;;;;;;20.77;18.20;;;;;;;;;;5054021;28;20058;-60
2023/09/26 02:39:42;;;;;;;20.77;16.87;;;;;;;;;;5064886;28;20418;-60
2023/09/26 02:42:08;;;;;;;21.43;18.30;;;;;;;;;;5067538;28;20044;-61
2023/09/26 02:44:34;;;;;;;22.80;18.60;;;;;;;;;;5068194;28;20166;-61
2023/09/26 02:47:00;;;;;;;22.40;19.30;;;;;;;;;;5070846;28;20402;-60
2023/09/26 02:49:26;;;;;;;24.00;20.20;;;;;;;;;;5071672;28;20051;-60
2023/09/26 02:51:52;;;;;;;22.43;19.97;;;;;;;;;;5071555;28;20048;-60
2023/09/26 02:54:18;;;;;;;22.50;18.87;;;;;;;;;;5052075;28;20041;-60
2023/09/26 02:56:44;;;;;;;21.67;17.70;;;;;;;;;;5051153;28;20577;-61
2023/09/26 02:59:10;;;;;;;24.37;19.70;;;;;;;;;;5052379;28;20045;-60
2023/09/26 03:01:36;;;;;;;28.03;20.90;;;;;;;;;;5051312;28;20052;-60
2023/09/26 03:04:02;;;;;;;29.13;23.13;;;;;;;;;;5051499;28;20041;-60
2023/09/26 03:06:28;;;;;;;30.53;23.60;;;;;;;;;;5051743;28;20442;-61
2023/09/26 03:08:54;;;;;;;31.17;22.40;;;;;;;;;;5051453;28;20041;-60
2023/09/26 03:11:19;;;;;;;26.13;22.63;;;;;;;;;;5050809;28;20487;-60
2023/09/26 03:13:45;;;;;;;27.63;22.30;;;;;;;;;;5051050;28;20041;-60
2023/09/26 03:16:14;;;;;;;30.93;23.33;;;;;;;;;;5053816;28;20108;-60
2023/09/26 03:18:40;;;;;;;29.90;24.47;;;;;;;;;;5071476;28;20106;-60
2023/09/26 03:21:06;;;;;;;28.07;23.10;;;;;;;;;;5064335;28;20033;-60
2023/09/26 03:23:33;;;;;;;34.00;26.00;;;;;;;;;;5050696;28;20045;-59
2023/09/26 03:25:59;;;;;;;29.47;22.73;;;;;;;;;;5049765;28;20036;-60
2023/09/26 03:28:25;;;;;;;27.07;23.47;;;;;;;;;;5050917;28;20048;-61
2023/09/26 03:30:51;;;;;;;29.63;23.73;;;;;;;;;;5051234;28;20132;-60
2023/09/26 03:33:17;;;;;;;31.20;23.17;;;;;;;;;;5050774;28;20499;-60
2023/09/26 03:35:43;;;;;;;24.13;20.80;;;;;;;;;;5054846;28;20049;-60
2023/09/26 03:38:09;;;;;;;26.63;21.40;;;;;;;;;;5051564;28;20060;-60
2023/09/26 03:40:35;;;;;;;29.47;23.53;;;;;;;;;;5050130;28;20057;-60
2023/09/26 03:43:01;;;;;;;27.87;21.40;;;;;;;;;;5051066;28;20190;-60
2023/09/26 03:45:27;;;;;;;24.17;19.97;;;;;;;;;;5049831;28;20045;-60
2023/09/26 03:47:52;;;;;;;27.03;21.33;;;;;;;;;;5061319;28;20482;-60
2023/09/26 03:50:18;;;;;;;25.30;22.43;;;;;;;;;;5052768;28;20048;-60
2023/09/26 03:52:44;;;;;;;27.33;21.27;;;;;;;;;;5050670;28;20049;-60
2023/09/26 03:55:10;;;;;;;34.47;23.57;;;;;;;;;;5050735;28;20090;-60
2023/09/26 03:57:36;;;;;;;28.13;20.63;;;;;;;;;;5061416;28;20120;-60
2023/09/26 04:00:16;;;;;;;28.53;22.03;;;;;;;;;;5069162;28;20040;-60
2023/09/26 04:02:44;;;;;;;27.57;22.17;;;;;;;;;;5070092;28;20045;-60
2023/09/26 04:05:10;;;;;;;26.90;22.13;;;;;;;;;;5052677;28;20052;-60
2023/09/26 04:07:36;;;;;;;26.80;21.13;;;;;;;;;;5070276;28;20045;-60
2023/09/26 04:10:02;;;;;;;24.03;21.27;;;;;;;;;;5069602;28;20044;-60
2023/09/26 04:12:28;;;;;;;26.30;20.97;;;;;;;;;;5070139;28;20040;-60
2023/09/26 04:14:54;;;;;;;25.43;20.80;;;;;;;;;;5056450;28;20041;-60
2023/09/26 04:17:20;;;;;;;29.03;22.50;;;;;;;;;;5049632;28;20056;-61
2023/09/26 04:19:47;;;;;;;29.20;22.83;;;;;;;;;;5055714;28;20070;-60
2023/09/26 04:22:13;;;;;;;23.20;20.70;;;;;;;;;;5070034;28;20044;-60
2023/09/26 04:24:39;;;;;;;25.90;20.67;;;;;;;;;;5068524;28;20044;-60
2023/09/26 04:27:05;;;;;;;22.40;19.97;;;;;;;;;;5069584;28;20101;-60
2023/09/26 04:29:33;;;;;;;23.50;19.00;;;;;;;;;;5069618;28;20044;-60
2023/09/26 04:31:59;;;;;;;21.90;18.77;;;;;;;;;;5069503;28;20075;-60
2023/09/26 04:34:27;;;;;;;21.10;17.83;;;;;;;;;;5067528;28;20518;-60
2023/09/26 04:36:53;;;;;;;24.53;17.33;;;;;;;;;;5069847;28;20136;-60
2023/09/26 04:39:19;;;;;;;22.50;18.67;;;;;;;;;;5069804;28;20414;-60
2023/09/26 04:41:45;;;;;;;22.73;20.23;;;;;;;;;;5069696;28;20045;-60
2023/09/26 04:44:11;;;;;;;25.47;18.90;;;;;;;;;;5064809;28;20392;-60
2023/09/26 04:46:37;;;;;;;24.37;18.60;;;;;;;;;;5069080;28;20037;-60
2023/09/26 04:49:04;;;;;;;22.33;19.83;;;;;;;;;;5069572;28;20221;-61
2023/09/26 04:51:30;;;;;;;24.80;18.77;;;;;;;;;;5068781;28;20608;-61
2023/09/26 04:53:59;;;;;;;24.73;19.90;;;;;;;;;;5059193;28;20080;-60
2023/09/26 04:56:25;;;;;;;25.13;21.03;;;;;;;;;;5069238;28;20055;-60
2023/09/26 04:58:51;;;;;;;29.00;21.17;;;;;;;;;;5059338;28;20127;-60
2023/09/26 05:01:17;;;;;;;23.70;19.93;;;;;;;;;;5049273;28;20128;-61
2023/09/26 05:03:43;;;;;;;26.33;20.87;;;;;;;;;;5049301;28;20037;-60
2023/09/26 05:06:09;;;;;;;26.83;21.43;;;;;;;;;;5049503;28;20052;-60
2023/09/26 05:08:36;;;;;;;28.50;21.93;;;;;;;;;;5048318;28;20462;-60
2023/09/26 05:11:02;;;;;;;29.13;22.07;;;;;;;;;;5048998;28;20407;-60
2023/09/26 05:13:28;;;;;;;29.43;23.37;;;;;;;;;;5060246;28;20041;-60
2023/09/26 05:15:54;;;;;;;32.63;25.13;;;;;;;;;;5058934;28;20396;-60
2023/09/26 05:18:20;;;;;;;31.20;25.40;;;;;;;;;;5068614;28;20048;-60
2023/09/26 05:20:46;;;;;;;32.07;22.93;;;;;;;;;;5068842;28;20044;-60
2023/09/26 05:23:12;;;;;;;30.63;23.17;;;;;;;;;;5067087;28;20059;-60
2023/09/26 05:25:38;;;;;;;26.13;21.43;;;;;;;;;;5068407;28;20445;-60
2023/09/26 05:28:05;;;;;;;28.27;21.70;;;;;;;;;;5054412;28;20044;-61
2023/09/26 05:30:31;;;;;;;27.50;21.40;;;;;;;;;;5052217;28;20044;-61
2023/09/26 05:32:57;;;;;;;26.23;19.37;;;;;;;;;;5068066;28;20139;-60
2023/09/26 05:35:23;;;;;;;20.33;18.27;;;;;;;;;;5054312;28;20423;-60
2023/09/26 05:37:49;;;;;;;21.33;18.40;;;;;;;;;;5048285;28;20135;-60
2023/09/26 05:40:15;;;;;;;21.83;18.13;;;;;;;;;;5047582;28;20084;-61
2023/09/26 05:42:41;;;;;;;22.90;18.43;;;;;;;;;;5046486;28;20524;-60
2023/09/26 05:45:08;;;;;;;21.10;17.70;;;;;;;;;;5047952;28;20080;-60
2023/09/26 05:47:35;;;;;;;20.17;16.67;;;;;;;;;;5047860;28;20052;-60
2023/09/26 05:50:01;;;;;;;21.57;17.83;;;;;;;;;;5057003;28;20049;-60
2023/09/26 05:52:27;;;;;;;21.10;16.47;;;;;;;;;;5066169;28;20048;-60
2023/09/26 05:54:53;;;;;;;24.90;16.67;;;;;;;;;;5067793;28;20514;-60
2023/09/26 05:57:19;;;;;;;22.87;15.47;;;;;;;;;;5066020;28;20480;-61
2023/09/26 05:59:45;;;;;;;17.17;14.17;;;;;;;;;;5067481;28;20062;-60
2023/09/26 06:02:13;;;;;;;20.57;14.83;;;;;;;;;;5065606;28;20128;-60
2023/09/26 06:04:42;;;;;;;17.07;13.87;;;;;;;;;;5049537;28;20111;-60
2023/09/26 06:07:09;;;;;;;14.50;13.00;;;;;;;;;;5047602;28;20049;-60
2023/09/26 06:09:36;;;;;;;17.10;12.90;;;;;;;;;;5047801;28;20071;-60
2023/09/26 06:12:02;;;;;;;15.50;12.90;;;;;;;;;;5047934;28;20507;-60
2023/09/26 06:14:28;;;;;;;16.80;12.53;;;;;;;;;;5067206;28;20499;-61
2023/09/26 06:16:54;;;;;;;14.60;13.07;;;;;;;;;;5067883;28;20068;-60
2023/09/26 06:19:20;;;;;;;15.97;13.13;;;;;;;;;;5063944;28;20049;-60
2023/09/26 06:21:46;;;;;;;15.27;12.13;;;;;;;;;;5071213;28;20430;-61
2023/09/26 06:24:12;;;;;;;16.40;12.47;;;;;;;;;;5071617;28;20052;-60
2023/09/26 06:26:38;;;;;;;21.03;13.37;;;;;;;;;;5070937;28;20037;-60
2023/09/26 06:29:04;;;;;;;17.50;11.90;;;;;;;;;;5055664;28;20491;-60
2023/09/26 06:31:30;;;;;;;15.73;11.70;;;;;;;;;;5064938;28;20056;-60
2023/09/26 06:33:59;;;;;;;14.27;11.80;;;;;;;;;;5072953;28;20044;-60
2023/09/26 06:36:30;;;;;;;14.57;12.00;;;;;;;;;;5051401;28;20110;-61
2023/09/26 06:38:56;;;;;;;17.33;11.60;;;;;;;;;;5052127;28;20486;-60
2023/09/26 06:41:22;;;;;;;14.03;11.47;;;;;;;;;;5051806;28;20097;-60
2023/09/26 06:43:48;;;;;;;14.90;10.97;;;;;;;;;;5067124;28;20045;-60
2023/09/26 06:46:14;;;;;;;15.80;11.73;;;;;;;;;;5050914;28;20053;-61
2023/09/26 06:48:42;;;;;;;15.37;11.33;;;;;;;;;;5051051;28;20140;-60
2023/09/26 06:51:08;;;;;;;13.00;10.37;;;;;;;;;;5067807;28;20094;-60
2023/09/26 06:53:34;;;;;;;12.30;10.73;;;;;;;;;;5069851;28;20044;-60
2023/09/26 06:56:01;;;;;;;16.70;11.00;;;;;;;;;;5059262;28;20170;-61
2023/09/26 06:58:27;;;;;;;14.37;10.83;;;;;;;;;;5058957;28;20043;-61
2023/09/26 07:00:53;;;;;;;14.43;10.80;;;;;;;;;;5071099;28;20074;-60
2023/09/26 07:03:19;;;;;;;17.07;11.73;;;;;;;;;;5070917;28;20050;-60
2023/09/26 07:05:45;;;;;;;17.13;11.57;;;;;;;;;;5071251;28;20060;-61
2023/09/26 07:08:14;;;;;;;14.17;11.40;;;;;;;;;;5065654;28;20075;-60
2023/09/26 07:10:40;;;;;;;17.87;11.57;;;;;;;;;;5070745;28;20526;-60
2023/09/26 07:13:06;;;;;;;13.37;10.60;;;;;;;;;;5065906;28;20867;-63
2023/09/26 07:15:32;;;;;;;16.20;10.87;;;;;;;;;;5061851;28;20492;-62
2023/09/26 07:17:59;;;;;;;12.93;11.07;;;;;;;;;;5052673;28;20055;-61
2023/09/26 07:20:25;;;;;;;14.07;10.43;;;;;;;;;;5051198;28;20083;-60
2023/09/26 07:22:51;;;;;;;17.30;11.00;;;;;;;;;;5050840;28;20503;-61
2023/09/26 07:25:17;;;;;;;12.60;10.30;;;;;;;;;;5051637;28;20137;-60
2023/09/26 07:27:43;;;;;;;12.37;9.87;;;;;;;;;;5058046;28;20128;-60
2023/09/26 07:30:09;;;;;;;14.13;11.00;;;;;;;;;;5070197;28;20228;-60
2023/09/26 07:32:35;;;;;;;14.13;10.00;;;;;;;;;;5071204;28;20042;-60
2023/09/26 07:35:02;;;;;;;12.47;9.80;;;;;;;;;;5070777;28;20044;-60
2023/09/26 07:37:28;;;;;;;14.20;9.67;;;;;;;;;;5066945;28;20069;-60
2023/09/26 07:39:54;;;;;;;11.90;9.37;;;;;;;;;;5068673;28;20510;-60
2023/09/26 07:42:20;;;;;;;12.70;8.80;;;;;;;;;;5054354;28;20060;-60
2023/09/26 07:44:46;;;;;;;10.97;9.03;;;;;;;;;;5068832;28;20167;-60
2023/09/26 07:47:12;;;;;;;12.83;9.47;;;;;;;;;;5055203;28;20076;-61
2023/09/26 07:49:40;;;;;;;16.87;9.47;;;;;;;;;;5057064;28;20526;-60
2023/09/26 07:52:06;;;;;;;14.73;9.47;;;;;;;;;;5066861;28;20057;-60
2023/09/26 07:54:33;;;;;;;13.23;8.57;;;;;;;;;;5068978;28;20037;-60
2023/09/26 07:56:59;;;;;;;11.00;8.93;;;;;;;;;;5070293;28;20063;-61
2023/09/26 07:59:25;;;;;;;15.37;9.87;;;;;;;;;;5070226;28;20144;-61
2023/09/26 08:01:51;;;;;;;12.63;7.30;;;;;;;;;;5065833;28;20498;-61
2023/09/26 08:04:17;;;;;;;10.70;8.23;;;;;;;;;;5059773;28;20521;-61
2023/09/26 08:06:45;;;;;;;10.50;7.90;;;;;;;;;;5065108;28;20120;-60
2023/09/26 08:09:11;;;;;;;12.53;8.10;;;;;;;;;;5057242;28;20053;-61
2023/09/26 08:11:38;;;;;;;11.33;7.93;;;;;;;;;;5048127;28;20079;-60
2023/09/26 08:14:05;;;;;;;12.97;7.77;;;;;;;;;;5056444;28;20470;-60
2023/09/26 08:16:30;;;;;;;10.93;7.57;;;;;;;;;;5063489;28;20045;-60
2023/09/26 08:18:57;;;;;;;13.47;7.87;;;;;;;;;;5053200;28;20045;-60
2023/09/26 08:21:25;;;;;;;13.63;7.20;;;;;;;;;;5057860;28;20415;-60
2023/09/26 08:23:51;;;;;;;10.03;7.23;;;;;;;;;;5050305;28;20053;-60
2023/09/26 08:26:17;;;;;;;10.07;7.73;;;;;;;;;;5066625;28;20079;-60
2023/09/26 08:28:43;;;;;;;9.57;7.30;;;;;;;;;;5069960;28;20079;-60
2023/09/26 08:31:10;;;;;;;10.57;6.87;;;;;;;;;;5068600;28;20036;-60
2023/09/26 08:33:37;;;;;;;13.67;7.50;;;;;;;;;;5069829;28;20166;-60
2023/09/26 08:36:05;;;;;;;13.27;7.30;;;;;;;;;;5062401;28;20041;-60
2023/09/26 08:38:31;;;;;;;12.37;7.13;;;;;;;;;;5059912;28;20063;-60
2023/09/26 08:40:58;;;;;;;12.73;7.47;;;;;;;;;;5069904;28;20056;-59
2023/09/26 08:43:25;;;;;;;12.13;6.87;;;;;;;;;;5069273;28;20055;-60
2023/09/26 08:45:51;;;;;;;12.03;7.27;;;;;;;;;;5069701;28;20044;-60
2023/09/26 08:48:17;;;;;;;14.40;7.70;;;;;;;;;;5069584;28;20545;-60
2023/09/26 08:50:43;;;;;;;9.93;7.10;;;;;;;;;;5069477;28;20044;-60
2023/09/26 08:53:09;;;;;;;11.13;7.50;;;;;;;;;;5069460;28;20048;-59
2023/09/26 08:55:38;;;;;;;10.33;7.40;;;;;;;;;;5069023;28;20040;-60
2023/09/26 08:58:04;;;;;;;10.43;7.87;;;;;;;;;;5069414;28;20685;-60
2023/09/26 09:00:30;;;;;;;13.07;8.07;;;;;;;;;;5068026;28;20036;-60
2023/09/26 09:02:56;;;;;;;14.50;7.90;;;;;;;;;;5059082;28;20099;-59
2023/09/26 09:05:23;;;;;;;13.53;7.97;;;;;;;;;;5047278;28;20488;-60
2023/09/26 09:07:49;;;;;;;12.87;7.70;;;;;;;;;;5060189;28;20486;-60
2023/09/26 09:10:18;;;;;;;10.03;6.93;;;;;;;;;;5069275;28;20055;-60
2023/09/26 09:12:47;;;;;;;10.43;7.57;;;;;;;;;;5068726;28;20503;-60
2023/09/26 09:15:17;;;;;;;15.60;6.70;;;;;;;;;;5069341;28;20060;-59
2023/09/26 09:17:43;;;;;;;11.27;7.33;;;;;;;;;;5067674;28;20131;-60
2023/09/26 09:20:16;;;;;;;10.83;7.30;;;;;;;;;;5053970;28;20052;-60
2023/09/26 09:22:44;;;;;;;10.18;7.10;;;;;;;;;;5069082;28;20059;-60
2023/09/26 09:25:11;;;;;;;9.57;6.57;;;;;;;;;;5065609;28;20443;-60
2023/09/26 09:27:40;;;;;;;12.13;6.97;;;;;;;;;;5068434;28;20444;-61
2023/09/26 09:30:07;;;;;;;11.83;7.07;;;;;;;;;;5067175;28;20059;-61
2023/09/26 09:32:33;;;;;;;11.57;6.87;;;;;;;;;;5068715;28;20052;-61
2023/09/26 09:34:59;;;;;;;15.73;7.37;;;;;;;;;;5065681;28;20043;-61
2023/09/26 09:37:26;;;;;;;12.63;6.87;;;;;;;;;;5067837;28;20067;-62
2023/09/26 09:39:52;;;;;;;13.63;7.80;;;;;;;;;;5068305;28;20067;-61
2023/09/26 09:42:19;;;;;;;12.83;7.27;;;;;;;;;;5068167;28;20056;-61
2023/09/26 09:44:45;;;;;;;12.47;7.77;;;;;;;;;;5068129;28;20079;-61
2023/09/26 09:47:11;;;;;;;11.33;7.37;;;;;;;;;;5068304;28;20525;-61
2023/09/26 09:49:41;;;;;;;12.63;6.63;;;;;;;;;;5068546;28;20426;-61
2023/09/26 09:52:09;;;;;;;11.63;6.03;;;;;;;;;;5068499;28;20044;-61
2023/09/26 09:54:39;;;;;;;10.40;5.70;;;;;;;;;;5067661;28;20135;-61
2023/09/26 09:57:11;;;;;;;8.60;5.63;;;;;;;;;;5068508;28;20083;-61
2023/09/26 09:59:38;;;;;;;9.43;6.40;;;;;;;;;;5068581;28;20044;-61
2023/09/26 10:02:10;;;;;;;13.73;5.93;;;;;;;;;;5067868;28;20052;-61
2023/09/26 10:04:40;;;;;;;9.13;6.17;;;;;;;;;;5067548;28;20044;-61
2023/09/26 10:07:07;;;;;;;9.23;6.10;;;;;;;;;;5068206;28;20649;-61
2023/09/26 10:09:33;;;;;;;12.07;7.03;;;;;;;;;;5053816;28;20049;-61
2023/09/26 10:12:00;;;;;;;10.07;5.50;;;;;;;;;;5050612;28;20390;-60
2023/09/26 10:14:30;;;;;;;11.17;6.60;;;;;;;;;;5056682;28;20387;-60
2023/09/26 10:16:59;;;;;;;9.77;6.77;;;;;;;;;;5048049;28;20074;-59
2023/09/26 10:19:28;;;;;;;9.70;6.83;;;;;;;;;;5048150;28;20630;-60
2023/09/26 10:22:13;;;;;;;10.40;7.57;;;;;;;;;;5051708;28;20080;-59
2023/09/26 10:24:56;;;;;;;10.87;6.70;;;;;;;;;;5064240;28;20064;-60
2023/09/26 10:27:24;;;;;;;13.20;6.90;;;;;;;;;;5067964;28;20522;-59
2023/09/26 10:29:51;;;;;;;9.47;6.97;;;;;;;;;;5069013;28;20453;-59
2023/09/26 10:32:22;;;;;;;8.30;6.77;;;;;;;;;;5068396;28;20087;-60
2023/09/26 10:34:48;;;;;;;10.97;6.33;;;;;;;;;;5068312;28;20076;-60
2023/09/26 10:37:20;;;;;;;10.37;6.60;;;;;;;;;;5059617;28;20115;-59
2023/09/26 10:39:46;;;;;;;11.93;7.10;;;;;;;;;;5061255;28;20124;-60
2023/09/26 10:42:13;;;;;;;9.87;6.57;;;;;;;;;;5067017;28;20139;-59
2023/09/26 10:44:40;;;;;;;10.43;7.20;;;;;;;;;;5060029;28;20064;-60
2023/09/26 10:47:06;;;;;;;9.23;6.47;;;;;;;;;;5048289;28;20045;-60
2023/09/26 10:49:32;;;;;;;12.77;7.33;;;;;;;;;;5048020;28;20092;-60
2023/09/26 10:52:02;;;;;;;10.93;7.20;;;;;;;;;;5048158;28;20040;-59
2023/09/26 10:54:30;;;;;;;10.30;7.13;;;;;;;;;;5047477;28;20048;-60
2023/09/26 10:56:58;;;;;;;13.03;7.77;;;;;;;;;;5047881;28;20057;-59
2023/09/26 10:59:26;;;;;;;10.77;6.67;;;;;;;;;;5048107;28;20075;-60
2023/09/26 11:01:54;;;;;;;9.53;7.13;;;;;;;;;;5048626;28;20053;-59
2023/09/26 11:04:20;;;;;;;9.20;6.30;;;;;;;;;;5048156;28;20083;-60
2023/09/26 11:06:46;;;;;;;11.93;7.70;;;;;;;;;;5050206;28;20442;-60
2023/09/26 11:09:12;;;;;;;14.33;7.23;;;;;;;;;;5051422;28;20044;-60
2023/09/26 11:11:39;;;;;;;10.15;6.82;;;;;;;;;;5051754;28;20041;-60
2023/09/26 11:14:05;;;;;;;9.07;7.23;;;;;;;;;;5051767;28;20621;-60
2023/09/26 11:16:32;;;;;;;11.48;7.15;;;;;;;;;;5051810;28;20136;-60
2023/09/26 11:18:57;;;;;;;11.50;6.90;;;;;;;;;;5051709;28;20470;-60
2023/09/26 11:21:23;;;;;;;10.80;7.20;;;;;;;;;;5051576;28;20131;-60
2023/09/26 11:23:49;;;;;;;10.13;7.10;;;;;;;;;;5051176;28;20448;-60
2023/09/26 11:26:16;;;;;;;10.37;7.20;;;;;;;;;;5051491;28;20083;-60
2023/09/26 11:28:42;;;;;;;10.90;7.00;;;;;;;;;;5051065;28;20052;-59
2023/09/26 11:31:08;;;;;;;10.03;7.33;;;;;;;;;;5062566;28;20044;-60
2023/09/26 11:33:34;;;;;;;11.50;7.30;;;;;;;;;;5071026;28;20078;-60
2023/09/26 11:36:01;;;;;;;10.27;7.33;;;;;;;;;;5060205;28;20055;-60
2023/09/26 11:38:27;;;;;;;11.65;7.82;;;;;;;;;;5050972;28;20052;-60
2023/09/26 11:40:57;;;;;;;13.97;7.60;;;;;;;;;;5050986;28;20103;-60
2023/09/26 11:43:23;;;;;;;10.43;7.70;;;;;;;;;;5051481;28;20141;-60
2023/09/26 11:45:49;;;;;;;12.27;7.47;;;;;;;;;;5050703;28;20116;-60
2023/09/26 11:48:15;;;;;;;11.30;7.60;;;;;;;;;;5050602;28;20425;-60
2023/09/26 11:50:41;;;;;;;12.35;6.93;;;;;;;;;;5049619;28;20056;-60
2023/09/26 11:53:07;;;;;;;11.52;7.53;;;;;;;;;;5062286;28;20521;-60
2023/09/26 11:55:35;;;;;;;11.50;7.57;;;;;;;;;;5070642;28;20083;-60
2023/09/26 11:58:01;;;;;;;10.23;7.15;;;;;;;;;;5070875;28;20048;-59
2023/09/26 12:00:27;;;;;;;11.60;7.17;;;;;;;;;;5070340;28;20048;-60
2023/09/26 12:02:53;;;;;;;8.88;7.05;;;;;;;;;;5071366;28;20056;-59
2023/09/26 12:05:26;;;;;;;12.80;7.18;;;;;;;;;;5070922;28;20048;-60
2023/09/26 12:07:52;;;;;;;12.02;6.90;;;;;;;;;;5050581;28;20511;-59
2023/09/26 12:10:18;;;;;;;7.82;6.38;;;;;;;;;;5063903;28;20071;-60
2023/09/26 12:12:45;;;;;;;14.85;6.85;;;;;;;;;;5070427;28;20370;-60
2023/09/26 12:15:16;;;;;;;12.60;7.40;;;;;;;;;;5070231;28;20048;-60
2023/09/26 12:17:42;;;;;;;11.00;6.78;;;;;;;;;;5069486;28;20048;-60
2023/09/26 12:20:08;;;;;;;11.25;7.10;;;;;;;;;;5070044;28;20510;-60
2023/09/26 12:22:35;;;;;;;14.43;8.50;;;;;;;;;;5069328;28;20532;-60
2023/09/26 12:25:01;;;;;;;10.80;6.57;;;;;;;;;;5070018;28;20055;-60
2023/09/26 12:27:27;;;;;;;9.02;6.95;;;;;;;;;;5069883;28;20406;-61
2023/09/26 12:29:53;;;;;;;11.02;7.50;;;;;;;;;;5070175;28;20060;-61
2023/09/26 12:32:19;;;;;;;7.43;6.20;;;;;;;;;;5070066;28;20043;-61
2023/09/26 12:34:45;;;;;;;8.70;5.60;;;;;;;;;;5070036;28;20534;-61
2023/09/26 12:37:11;;;;;;;6.80;5.75;;;;;;;;;;5069526;28;20066;-61
2023/09/26 12:39:37;;;;;;;7.10;5.47;;;;;;;;;;5069450;28;20113;-61
2023/09/26 12:42:03;;;;;;;10.27;6.13;;;;;;;;;;5069864;28;20049;-61
2023/09/26 12:44:29;;;;;;;7.85;5.80;;;;;;;;;;5069277;28;20498;-61
2023/09/26 12:46:55;;;;;;;7.53;5.78;;;;;;;;;;5069350;28;20044;-61
2023/09/26 12:49:21;;;;;;;8.75;5.35;;;;;;;;;;5069757;28;20465;-61
2023/09/26 12:51:47;;;;;;;9.25;5.38;;;;;;;;;;5069259;28;20044;-61
2023/09/26 12:54:13;;;;;;;7.30;5.03;;;;;;;;;;5069172;28;20044;-61
2023/09/26 12:56:39;;;;;;;9.52;5.82;;;;;;;;;;5069332;28;20542;-61
2023/09/26 12:59:05;;;;;;;9.70;6.28;;;;;;;;;;5069124;28;20320;-61
2023/09/26 13:01:31;;;;;;;7.93;5.38;;;;;;;;;;5068770;28;20041;-61
2023/09/26 13:03:57;;;;;;;8.32;5.45;;;;;;;;;;5067648;28;20426;-61
2023/09/26 13:06:23;;;;;;;8.65;6.07;;;;;;;;;;5067883;28;20051;-61
2023/09/26 13:08:49;;;;;;;8.50;5.75;;;;;;;;;;5067427;28;20051;-61
2023/09/26 13:11:15;;;;;;;6.63;5.35;;;;;;;;;;5067971;28;20482;-61
2023/09/26 13:13:41;;;;;;;9.15;5.90;;;;;;;;;;5068128;28;20048;-61
2023/09/26 13:16:08;;;;;;;8.45;5.75;;;;;;;;;;5068368;28;20051;-61
2023/09/26 13:18:34;;;;;;;9.52;6.57;;;;;;;;;;5068617;28;20040;-61
2023/09/26 13:21:00;;;;;;;8.60;6.78;;;;;;;;;;5068871;28;20048;-61
2023/09/26 13:23:26;;;;;;;8.13;6.88;;;;;;;;;;5068664;28;20048;-61
2023/09/26 13:25:52;;;;;;;9.90;6.25;;;;;;;;;;5068519;28;20075;-61
2023/09/26 13:28:18;;;;;;;9.18;5.57;;;;;;;;;;5068853;28;20044;-61
2023/09/26 13:30:44;;;;;;;11.40;6.60;;;;;;;;;;5068726;28;20516;-61
2023/09/26 13:33:11;;;;;;;11.45;6.38;;;;;;;;;;5066272;28;20522;-61
2023/09/26 13:35:37;;;;;;;8.45;6.40;;;;;;;;;;5049118;28;20056;-61
2023/09/26 13:38:03;;;;;;;12.35;6.57;;;;;;;;;;5048583;28;20427;-61
2023/09/26 13:40:29;;;;;;;11.93;6.38;;;;;;;;;;5049274;28;20053;-60
2023/09/26 13:42:55;;;;;;;7.50;6.15;;;;;;;;;;5055339;28;20037;-60
2023/09/26 13:45:21;;;;;;;10.85;7.05;;;;;;;;;;5050659;28;20102;-61
2023/09/26 13:47:47;;;;;;;9.88;6.70;;;;;;;;;;5061534;28;20181;-61
2023/09/26 13:50:13;;;;;;;8.98;5.90;;;;;;;;;;5068916;28;20041;-61
2023/09/26 13:52:39;;;;;;;7.75;5.55;;;;;;;;;;5056060;28;20107;-61
2023/09/26 13:55:06;;;;;;;9.23;5.82;;;;;;;;;;5052549;28;20499;-61
2023/09/26 13:57:32;;;;;;;8.75;5.03;;;;;;;;;;5067857;28;20101;-61
2023/09/26 13:59:58;;;;;;;7.95;5.40;;;;;;;;;;5055066;28;20430;-61
2023/09/26 14:02:25;;;;;;;10.48;5.70;;;;;;;;;;5048249;28;20056;-61
2023/09/26 14:04:51;;;;;;;10.43;5.82;;;;;;;;;;5048424;28;20163;-61
2023/09/26 14:07:17;;;;;;;8.13;5.32;;;;;;;;;;5063450;28;20517;-61
2023/09/26 14:09:43;;;;;;;9.25;5.18;;;;;;;;;;5048146;28;20083;-61
2023/09/26 14:12:09;;;;;;;10.40;5.50;;;;;;;;;;5048051;28;20048;-61
2023/09/26 14:14:36;;;;;;;7.57;4.97;;;;;;;;;;5048298;28;20053;-61
2023/09/26 14:17:02;;;;;;;6.90;5.28;;;;;;;;;;5047883;28;20045;-61
2023/09/26 14:19:28;;;;;;;9.13;5.35;;;;;;;;;;5059899;28;20071;-61
2023/09/26 14:21:54;;;;;;;9.65;5.45;;;;;;;;;;5068130;28;20052;-62